Terminal Aerodrome Forecast
Issued by NWS

Home | Current Version | Previous Version | Text Only | Print | Product List | Glossary On
Versions: 1 2 3 4 5 6 7 8 9 10 11 12 13 14 15 16 17 18 19 20 21 22 23 24 25 26 27 28 29 30 31 32 33 34 35 36 37 38 39 40 41 42 43 44 45 46 47 48 49 50
735
FTUS44 KHGX 281911 AAA
TAFCXO
TAF AMD
KCXO 281911Z 2819/2918 10011KT P6SM SCT045
     FM282000 12009KT P6SM BKN045
     FM290100 13005KT P6SM SCT100
     FM291000 VRB03KT 3SM BR BKN006
     FM291330 VRB04KT P6SM SCT006 BKN015
     FM291600 19007KT P6SM SCT015 SCT035=

USA.gov is the U.S. government's official web portal to all federal, state and local government web resources and services.